sensor_id;sensor_type;location;lat;lon;timestamp;temperature;humidity
28484;DHT22;15704;48.834;8.736;2023-08-20T00:00:11;21.40;99.90
28484;DHT22;15704;48.834;8.736;2023-08-20T00:02:41;21.50;99.90
28484;DHT22;15704;48.834;8.736;2023-08-20T00:05:09;21.50;99.90
28484;DHT22;15704;48.834;8.736;2023-08-20T00:07:36;21.40;99.90
28484;DHT22;15704;48.834;8.736;2023-08-20T00:10:03;21.50;99.90
28484;DHT22;15704;48.834;8.736;2023-08-20T00:12:33;21.50;99.90
28484;DHT22;15704;48.834;8.736;2023-08-20T00:15:02;21.40;99.90
28484;DHT22;15704;48.834;8.736;2023-08-20T00:17:37;21.40;99.90
28484;DHT22;15704;48.834;8.736;2023-08-20T00:20:06;21.40;99.90
28484;DHT22;15704;48.834;8.736;2023-08-20T00:22:40;21.40;99.90
28484;DHT22;15704;48.834;8.736;2023-08-20T00:25:09;21.30;99.90
28484;DHT22;15704;48.834;8.736;2023-08-20T00:27:36;21.30;99.90
28484;DHT22;15704;48.834;8.736;2023-08-20T00:30:03;21.20;99.90
28484;DHT22;15704;48.834;8.736;2023-08-20T00:32:30;21.10;99.90
28484;DHT22;15704;48.834;8.736;2023-08-20T00:34:57;21.10;99.90
28484;DHT22;15704;48.834;8.736;2023-08-20T00:37:25;21.00;99.90
28484;DHT22;15704;48.834;8.736;2023-08-20T00:39:52;21.00;99.90
28484;DHT22;15704;48.834;8.736;2023-08-20T00:42:18;21.00;99.90
28484;DHT22;15704;48.834;8.736;2023-08-20T00:44:45;21.00;99.90
28484;DHT22;15704;48.834;8.736;2023-08-20T00:47:16;21.00;99.90
28484;DHT22;15704;48.834;8.736;2023-08-20T00:49:45;21.00;99.90
28484;DHT22;15704;48.834;8.736;2023-08-20T00:52:14;21.00;99.90
28484;DHT22;15704;48.834;8.736;2023-08-20T00:54:41;20.90;99.90
28484;DHT22;15704;48.834;8.736;2023-08-20T00:57:08;21.00;99.90
28484;DHT22;15704;48.834;8.736;2023-08-20T00:59:35;21.00;99.90
28484;DHT22;15704;48.834;8.736;2023-08-20T01:02:02;21.00;99.90
28484;DHT22;15704;48.834;8.736;2023-08-20T01:04:30;20.90;99.90
28484;DHT22;15704;48.834;8.736;2023-08-20T01:12:17;20.90;99.90
28484;DHT22;15704;48.834;8.736;2023-08-20T01:14:44;20.90;99.90
28484;DHT22;15704;48.834;8.736;2023-08-20T01:17:10;20.80;99.90
28484;DHT22;15704;48.834;8.736;2023-08-20T01:19:37;20.70;99.90
28484;DHT22;15704;48.834;8.736;2023-08-20T01:28:19;20.70;99.90
28484;DHT22;15704;48.834;8.736;2023-08-20T01:30:46;20.60;99.90
28484;DHT22;15704;48.834;8.736;2023-08-20T01:33:15;20.60;99.90
28484;DHT22;15704;48.834;8.736;2023-08-20T01:35:42;20.50;99.90
28484;DHT22;15704;48.834;8.736;2023-08-20T01:38:09;20.50;99.90
28484;DHT22;15704;48.834;8.736;2023-08-20T01:40:36;20.40;99.90
28484;DHT22;15704;48.834;8.736;2023-08-20T01:43:02;20.40;99.90
28484;DHT22;15704;48.834;8.736;2023-08-20T01:45:29;20.40;99.90
28484;DHT22;15704;48.834;8.736;2023-08-20T01:47:56;20.40;99.90
28484;DHT22;15704;48.834;8.736;2023-08-20T01:50:23;20.40;99.90
28484;DHT22;15704;48.834;8.736;2023-08-20T01:52:49;20.40;99.90
28484;DHT22;15704;48.834;8.736;2023-08-20T01:55:16;20.40;99.90
28484;DHT22;15704;48.834;8.736;2023-08-20T01:57:43;20.40;99.90
28484;DHT22;15704;48.834;8.736;2023-08-20T02:00:11;20.40;99.90
28484;DHT22;15704;48.834;8.736;2023-08-20T02:02:37;20.40;99.90
28484;DHT22;15704;48.834;8.736;2023-08-20T02:05:05;20.40;99.90
28484;DHT22;15704;48.834;8.736;2023-08-20T02:07:32;20.40;99.90
28484;DHT22;15704;48.834;8.736;2023-08-20T02:09:59;20.30;99.90
28484;DHT22;15704;48.834;8.736;2023-08-20T02:12:26;20.30;99.90
28484;DHT22;15704;48.834;8.736;2023-08-20T02:14:56;20.30;99.90
28484;DHT22;15704;48.834;8.736;2023-08-20T02:17:22;20.30;99.90
28484;DHT22;15704;48.834;8.736;2023-08-20T02:19:50;20.30;99.90
28484;DHT22;15704;48.834;8.736;2023-08-20T02:22:17;20.30;99.90
28484;DHT22;15704;48.834;8.736;2023-08-20T02:24:45;20.30;99.90
28484;DHT22;15704;48.834;8.736;2023-08-20T02:27:12;20.30;99.90
28484;DHT22;15704;48.834;8.736;2023-08-20T02:29:39;20.20;99.90
28484;DHT22;15704;48.834;8.736;2023-08-20T02:32:06;20.20;99.90
28484;DHT22;15704;48.834;8.736;2023-08-20T02:34:32;20.20;99.90
28484;DHT22;15704;48.834;8.736;2023-08-20T02:36:59;20.20;99.90
28484;DHT22;15704;48.834;8.736;2023-08-20T02:39:26;20.20;99.90
28484;DHT22;15704;48.834;8.736;2023-08-20T02:41:54;20.10;99.90
28484;DHT22;15704;48.834;8.736;2023-08-20T02:44:21;20.10;99.90
28484;DHT22;15704;48.834;8.736;2023-08-20T02:46:47;20.10;99.90
28484;DHT22;15704;48.834;8.736;2023-08-20T02:49:14;20.10;99.90
28484;DHT22;15704;48.834;8.736;2023-08-20T02:51:43;20.00;99.90
28484;DHT22;15704;48.834;8.736;2023-08-20T02:54:09;20.00;99.90
28484;DHT22;15704;48.834;8.736;2023-08-20T02:56:36;20.00;99.90
28484;DHT22;15704;48.834;8.736;2023-08-20T02:59:03;19.90;99.90
28484;DHT22;15704;48.834;8.736;2023-08-20T03:01:30;19.90;99.90
28484;DHT22;15704;48.834;8.736;2023-08-20T03:03:57;19.90;99.90
28484;DHT22;15704;48.834;8.736;2023-08-20T03:06:24;19.90;99.90
28484;DHT22;15704;48.834;8.736;2023-08-20T03:08:51;19.80;99.90
28484;DHT22;15704;48.834;8.736;2023-08-20T03:11:17;19.80;99.90
28484;DHT22;15704;48.834;8.736;2023-08-20T03:13:44;19.80;99.90
28484;DHT22;15704;48.834;8.736;2023-08-20T03:16:12;19.80;99.90
28484;DHT22;15704;48.834;8.736;2023-08-20T03:18:39;19.80;99.90
28484;DHT22;15704;48.834;8.736;2023-08-20T03:21:05;19.70;99.90
28484;DHT22;15704;48.834;8.736;2023-08-20T03:23:32;19.70;99.90
28484;DHT22;15704;48.834;8.736;2023-08-20T03:25:59;19.70;99.90
28484;DHT22;15704;48.834;8.736;2023-08-20T03:28:26;19.70;99.90
28484;DHT22;15704;48.834;8.736;2023-08-20T03:30:53;19.70;99.90
28484;DHT22;15704;48.834;8.736;2023-08-20T03:33:19;19.70;99.90
28484;DHT22;15704;48.834;8.736;2023-08-20T03:35:49;19.70;99.90
28484;DHT22;15704;48.834;8.736;2023-08-20T03:38:15;19.70;99.90
28484;DHT22;15704;48.834;8.736;2023-08-20T03:40:42;19.60;99.90
28484;DHT22;15704;48.834;8.736;2023-08-20T03:43:09;19.60;99.90
28484;DHT22;15704;48.834;8.736;2023-08-20T03:45:36;19.60;99.90
28484;DHT22;15704;48.834;8.736;2023-08-20T03:48:03;19.60;99.90
28484;DHT22;15704;48.834;8.736;2023-08-20T03:50:30;19.60;99.90
28484;DHT22;15704;48.834;8.736;2023-08-20T03:52:56;19.60;99.90
28484;DHT22;15704;48.834;8.736;2023-08-20T03:55:23;19.60;99.90
28484;DHT22;15704;48.834;8.736;2023-08-20T03:57:50;19.60;99.90
28484;DHT22;15704;48.834;8.736;2023-08-20T04:00:17;19.60;99.90
28484;DHT22;15704;48.834;8.736;2023-08-20T04:02:43;19.60;99.90
28484;DHT22;15704;48.834;8.736;2023-08-20T04:05:10;19.60;99.90
28484;DHT22;15704;48.834;8.736;2023-08-20T04:07:37;19.50;99.90
28484;DHT22;15704;48.834;8.736;2023-08-20T04:10:04;19.60;99.90
28484;DHT22;15704;48.834;8.736;2023-08-20T04:12:31;19.60;99.90
28484;DHT22;15704;48.834;8.736;2023-08-20T04:14:58;19.60;99.90
28484;DHT22;15704;48.834;8.736;2023-08-20T04:17:25;19.60;99.90
28484;DHT22;15704;48.834;8.736;2023-08-20T04:19:52;19.60;99.90
28484;DHT22;15704;48.834;8.736;2023-08-20T04:22:19;19.60;99.90
28484;DHT22;15704;48.834;8.736;2023-08-20T04:24:45;19.60;99.90
28484;DHT22;15704;48.834;8.736;2023-08-20T04:27:12;19.60;99.90
28484;DHT22;15704;48.834;8.736;2023-08-20T04:29:39;19.60;99.90
28484;DHT22;15704;48.834;8.736;2023-08-20T04:32:06;19.60;99.90
28484;DHT22;15704;48.834;8.736;2023-08-20T04:34:32;19.60;99.90
28484;DHT22;15704;48.834;8.736;2023-08-20T04:36:59;19.70;99.90
28484;DHT22;15704;48.834;8.736;2023-08-20T04:39:26;19.70;99.90
28484;DHT22;15704;48.834;8.736;2023-08-20T04:41:53;19.70;99.90
28484;DHT22;15704;48.834;8.736;2023-08-20T04:44:23;19.70;99.90
28484;DHT22;15704;48.834;8.736;2023-08-20T04:46:50;19.80;99.90
28484;DHT22;15704;48.834;8.736;2023-08-20T04:49:17;19.90;99.90
28484;DHT22;15704;48.834;8.736;2023-08-20T04:51:44;19.90;99.90
28484;DHT22;15704;48.834;8.736;2023-08-20T04:54:11;20.00;99.90
28484;DHT22;15704;48.834;8.736;2023-08-20T04:56:37;20.10;99.90
28484;DHT22;15704;48.834;8.736;2023-08-20T04:59:04;20.20;99.90
28484;DHT22;15704;48.834;8.736;2023-08-20T05:01:31;20.30;99.90
28484;DHT22;15704;48.834;8.736;2023-08-20T05:03:58;20.40;99.90
28484;DHT22;15704;48.834;8.736;2023-08-20T05:06:25;20.60;99.90
28484;DHT22;15704;48.834;8.736;2023-08-20T05:08:51;20.60;99.90
28484;DHT22;15704;48.834;8.736;2023-08-20T05:11:18;20.80;99.90
28484;DHT22;15704;48.834;8.736;2023-08-20T05:13:47;20.80;99.90
28484;DHT22;15704;48.834;8.736;2023-08-20T05:16:14;21.00;99.90
28484;DHT22;15704;48.834;8.736;2023-08-20T05:18:41;21.10;99.90
28484;DHT22;15704;48.834;8.736;2023-08-20T05:21:08;21.20;99.90
28484;DHT22;15704;48.834;8.736;2023-08-20T05:23:38;21.50;99.90
28484;DHT22;15704;48.834;8.736;2023-08-20T05:26:04;21.70;99.90
28484;DHT22;15704;48.834;8.736;2023-08-20T05:28:31;21.90;99.90
28484;DHT22;15704;48.834;8.736;2023-08-20T05:30:58;22.10;99.90
28484;DHT22;15704;48.834;8.736;2023-08-20T05:33:25;22.30;99.90
28484;DHT22;15704;48.834;8.736;2023-08-20T05:35:52;22.50;99.90
28484;DHT22;15704;48.834;8.736;2023-08-20T05:38:19;22.50;99.90
28484;DHT22;15704;48.834;8.736;2023-08-20T05:40:46;22.60;99.90
28484;DHT22;15704;48.834;8.736;2023-08-20T05:43:13;22.70;99.90
28484;DHT22;15704;48.834;8.736;2023-08-20T05:45:40;22.80;99.90
28484;DHT22;15704;48.834;8.736;2023-08-20T05:48:06;22.80;99.90
28484;DHT22;15704;48.834;8.736;2023-08-20T05:50:33;22.90;99.90
28484;DHT22;15704;48.834;8.736;2023-08-20T05:53:00;23.10;99.90
28484;DHT22;15704;48.834;8.736;2023-08-20T05:55:27;23.20;99.90
28484;DHT22;15704;48.834;8.736;2023-08-20T05:57:54;23.20;99.90
28484;DHT22;15704;48.834;8.736;2023-08-20T06:00:21;23.20;99.90
28484;DHT22;15704;48.834;8.736;2023-08-20T06:02:48;23.30;99.90
28484;DHT22;15704;48.834;8.736;2023-08-20T06:05:15;23.50;99.90
28484;DHT22;15704;48.834;8.736;2023-08-20T06:07:42;23.70;99.90
28484;DHT22;15704;48.834;8.736;2023-08-20T06:10:09;23.90;99.90
28484;DHT22;15704;48.834;8.736;2023-08-20T06:12:35;24.10;99.90
28484;DHT22;15704;48.834;8.736;2023-08-20T06:15:04;24.40;99.90
28484;DHT22;15704;48.834;8.736;2023-08-20T06:17:30;24.70;99.90
28484;DHT22;15704;48.834;8.736;2023-08-20T06:19:57;24.80;99.90
28484;DHT22;15704;48.834;8.736;2023-08-20T06:22:24;25.00;99.90
28484;DHT22;15704;48.834;8.736;2023-08-20T06:24:51;25.10;99.90
28484;DHT22;15704;48.834;8.736;2023-08-20T06:27:18;25.20;99.90
28484;DHT22;15704;48.834;8.736;2023-08-20T06:29:44;25.10;99.90
28484;DHT22;15704;48.834;8.736;2023-08-20T06:32:11;24.90;99.90
28484;DHT22;15704;48.834;8.736;2023-08-20T06:34:38;24.90;99.90
28484;DHT22;15704;48.834;8.736;2023-08-20T06:37:05;24.70;99.90
28484;DHT22;15704;48.834;8.736;2023-08-20T06:39:31;24.60;99.90
28484;DHT22;15704;48.834;8.736;2023-08-20T06:41:58;24.50;99.90
28484;DHT22;15704;48.834;8.736;2023-08-20T06:44:25;24.50;99.90
28484;DHT22;15704;48.834;8.736;2023-08-20T06:46:52;24.60;99.90
28484;DHT22;15704;48.834;8.736;2023-08-20T06:49:18;24.70;99.90
28484;DHT22;15704;48.834;8.736;2023-08-20T06:51:45;24.50;99.90
28484;DHT22;15704;48.834;8.736;2023-08-20T06:54:12;24.70;99.90
28484;DHT22;15704;48.834;8.736;2023-08-20T06:56:39;24.70;99.90
28484;DHT22;15704;48.834;8.736;2023-08-20T06:59:06;24.60;99.90
28484;DHT22;15704;48.834;8.736;2023-08-20T07:01:33;24.60;99.90
28484;DHT22;15704;48.834;8.736;2023-08-20T07:03:59;24.70;99.90
28484;DHT22;15704;48.834;8.736;2023-08-20T07:06:29;24.70;99.90
28484;DHT22;15704;48.834;8.736;2023-08-20T07:08:56;24.70;99.90
28484;DHT22;15704;48.834;8.736;2023-08-20T07:11:23;24.60;99.90
28484;DHT22;15704;48.834;8.736;2023-08-20T07:13:50;24.60;99.90
28484;DHT22;15704;48.834;8.736;2023-08-20T07:16:17;24.70;99.90
28484;DHT22;15704;48.834;8.736;2023-08-20T07:18:43;24.70;99.90
28484;DHT22;15704;48.834;8.736;2023-08-20T07:21:10;24.40;99.90
28484;DHT22;15704;48.834;8.736;2023-08-20T07:23:37;24.40;99.90
28484;DHT22;15704;48.834;8.736;2023-08-20T07:26:09;24.30;99.90
28484;DHT22;15704;48.834;8.736;2023-08-20T07:28:36;24.30;99.90
28484;DHT22;15704;48.834;8.736;2023-08-20T07:31:31;24.10;99.90
28484;DHT22;15704;48.834;8.736;2023-08-20T07:34:00;24.20;99.90
28484;DHT22;15704;48.834;8.736;2023-08-20T07:36:30;24.30;99.90
28484;DHT22;15704;48.834;8.736;2023-08-20T07:38:57;24.30;99.90
28484;DHT22;15704;48.834;8.736;2023-08-20T07:41:23;24.40;99.90
28484;DHT22;15704;48.834;8.736;2023-08-20T07:43:50;24.50;99.90
28484;DHT22;15704;48.834;8.736;2023-08-20T07:46:17;24.70;99.90
28484;DHT22;15704;48.834;8.736;2023-08-20T07:48:44;24.60;99.90
28484;DHT22;15704;48.834;8.736;2023-08-20T07:51:12;24.70;99.90
28484;DHT22;15704;48.834;8.736;2023-08-20T07:53:39;24.70;99.90
28484;DHT22;15704;48.834;8.736;2023-08-20T07:56:06;24.70;99.90
28484;DHT22;15704;48.834;8.736;2023-08-20T07:58:32;24.60;99.90
28484;DHT22;15704;48.834;8.736;2023-08-20T08:00:59;24.60;99.90
28484;DHT22;15704;48.834;8.736;2023-08-20T08:03:26;24.60;99.90
28484;DHT22;15704;48.834;8.736;2023-08-20T08:05:56;24.60;99.90
28484;DHT22;15704;48.834;8.736;2023-08-20T08:08:23;24.80;99.90
28484;DHT22;15704;48.834;8.736;2023-08-20T08:10:50;25.00;99.90
28484;DHT22;15704;48.834;8.736;2023-08-20T08:13:21;25.00;99.90
28484;DHT22;15704;48.834;8.736;2023-08-20T08:15:49;25.20;99.90
28484;DHT22;15704;48.834;8.736;2023-08-20T08:18:17;25.40;99.90
28484;DHT22;15704;48.834;8.736;2023-08-20T08:20:44;25.50;99.90
28484;DHT22;15704;48.834;8.736;2023-08-20T08:23:12;25.70;99.90
28484;DHT22;15704;48.834;8.736;2023-08-20T08:25:39;25.70;99.90
28484;DHT22;15704;48.834;8.736;2023-08-20T08:28:06;25.40;99.90
28484;DHT22;15704;48.834;8.736;2023-08-20T08:30:33;25.50;99.90
28484;DHT22;15704;48.834;8.736;2023-08-20T08:33:00;25.80;99.90
28484;DHT22;15704;48.834;8.736;2023-08-20T08:35:27;25.70;99.90
28484;DHT22;15704;48.834;8.736;2023-08-20T08:37:54;25.50;99.90
28484;DHT22;15704;48.834;8.736;2023-08-20T08:40:21;25.60;99.90
28484;DHT22;15704;48.834;8.736;2023-08-20T08:42:49;25.80;99.90
28484;DHT22;15704;48.834;8.736;2023-08-20T08:45:18;25.70;99.90
28484;DHT22;15704;48.834;8.736;2023-08-20T08:47:49;25.80;99.90
28484;DHT22;15704;48.834;8.736;2023-08-20T08:50:16;26.10;99.90
28484;DHT22;15704;48.834;8.736;2023-08-20T08:52:45;26.20;99.90
28484;DHT22;15704;48.834;8.736;2023-08-20T08:55:13;26.40;99.90
28484;DHT22;15704;48.834;8.736;2023-08-20T08:57:40;26.80;99.90
28484;DHT22;15704;48.834;8.736;2023-08-20T09:00:07;27.30;99.90
28484;DHT22;15704;48.834;8.736;2023-08-20T09:02:34;26.90;99.90
28484;DHT22;15704;48.834;8.736;2023-08-20T09:05:01;26.60;99.90
28484;DHT22;15704;48.834;8.736;2023-08-20T09:07:27;26.70;99.90
28484;DHT22;15704;48.834;8.736;2023-08-20T09:09:58;26.80;99.90
28484;DHT22;15704;48.834;8.736;2023-08-20T09:12:26;26.60;99.90
28484;DHT22;15704;48.834;8.736;2023-08-20T09:14:53;26.70;99.90
28484;DHT22;15704;48.834;8.736;2023-08-20T09:17:25;26.60;99.90
28484;DHT22;15704;48.834;8.736;2023-08-20T09:19:55;26.70;99.90
28484;DHT22;15704;48.834;8.736;2023-08-20T09:22:26;26.70;99.90
28484;DHT22;15704;48.834;8.736;2023-08-20T09:24:54;26.70;99.90
28484;DHT22;15704;48.834;8.736;2023-08-20T09:27:22;26.90;99.90
28484;DHT22;15704;48.834;8.736;2023-08-20T09:29:54;26.90;99.90
28484;DHT22;15704;48.834;8.736;2023-08-20T09:32:22;26.80;99.90
28484;DHT22;15704;48.834;8.736;2023-08-20T09:34:50;26.60;99.90
28484;DHT22;15704;48.834;8.736;2023-08-20T09:37:19;26.70;99.90
28484;DHT22;15704;48.834;8.736;2023-08-20T09:39:46;26.80;99.90
28484;DHT22;15704;48.834;8.736;2023-08-20T09:42:13;27.00;99.90
28484;DHT22;15704;48.834;8.736;2023-08-20T09:44:41;26.90;99.90
28484;DHT22;15704;48.834;8.736;2023-08-20T09:47:10;27.10;99.90
28484;DHT22;15704;48.834;8.736;2023-08-20T09:52:06;26.80;99.90
28484;DHT22;15704;48.834;8.736;2023-08-20T09:55:03;27.00;99.90
28484;DHT22;15704;48.834;8.736;2023-08-20T09:57:35;26.90;99.90
28484;DHT22;15704;48.834;8.736;2023-08-20T10:00:04;26.90;99.90
28484;DHT22;15704;48.834;8.736;2023-08-20T10:02:41;27.10;99.90
28484;DHT22;15704;48.834;8.736;2023-08-20T10:05:12;27.20;99.90
28484;DHT22;15704;48.834;8.736;2023-08-20T10:07:39;27.20;99.90
28484;DHT22;15704;48.834;8.736;2023-08-20T10:10:08;27.20;99.90
28484;DHT22;15704;48.834;8.736;2023-08-20T10:12:36;27.30;99.90
28484;DHT22;15704;48.834;8.736;2023-08-20T10:15:04;27.40;99.90
28484;DHT22;15704;48.834;8.736;2023-08-20T10:17:32;27.30;99.90
28484;DHT22;15704;48.834;8.736;2023-08-20T10:20:04;27.20;99.90
28484;DHT22;15704;48.834;8.736;2023-08-20T10:22:39;27.30;99.90
28484;DHT22;15704;48.834;8.736;2023-08-20T10:25:21;27.50;99.90
28484;DHT22;15704;48.834;8.736;2023-08-20T10:27:48;27.50;99.90
28484;DHT22;15704;48.834;8.736;2023-08-20T10:30:19;27.60;99.90
28484;DHT22;15704;48.834;8.736;2023-08-20T10:35:22;27.80;99.90
28484;DHT22;15704;48.834;8.736;2023-08-20T10:38:12;27.60;99.90
28484;DHT22;15704;48.834;8.736;2023-08-20T10:40:52;27.60;99.90
28484;DHT22;15704;48.834;8.736;2023-08-20T10:43:46;27.50;99.90
28484;DHT22;15704;48.834;8.736;2023-08-20T10:48:40;27.70;99.90
28484;DHT22;15704;48.834;8.736;2023-08-20T10:51:09;27.90;99.90
28484;DHT22;15704;48.834;8.736;2023-08-20T10:53:37;27.90;99.90
28484;DHT22;15704;48.834;8.736;2023-08-20T10:56:14;27.70;99.90
28484;DHT22;15704;48.834;8.736;2023-08-20T10:58:45;27.90;99.90
28484;DHT22;15704;48.834;8.736;2023-08-20T11:01:21;28.00;99.90
28484;DHT22;15704;48.834;8.736;2023-08-20T11:03:50;27.90;99.90
28484;DHT22;15704;48.834;8.736;2023-08-20T11:06:18;27.80;99.90
28484;DHT22;15704;48.834;8.736;2023-08-20T11:08:45;27.70;99.90
28484;DHT22;15704;48.834;8.736;2023-08-20T11:11:12;27.80;99.90
28484;DHT22;15704;48.834;8.736;2023-08-20T11:13:39;28.00;99.90
28484;DHT22;15704;48.834;8.736;2023-08-20T11:16:07;28.10;99.90
28484;DHT22;15704;48.834;8.736;2023-08-20T11:18:34;28.00;99.90
28484;DHT22;15704;48.834;8.736;2023-08-20T11:21:01;28.10;99.90
28484;DHT22;15704;48.834;8.736;2023-08-20T11:23:29;28.30;99.90
28484;DHT22;15704;48.834;8.736;2023-08-20T11:25:57;28.60;99.90
28484;DHT22;15704;48.834;8.736;2023-08-20T11:28:25;28.60;99.90
28484;DHT22;15704;48.834;8.736;2023-08-20T11:30:53;28.70;99.90
28484;DHT22;15704;48.834;8.736;2023-08-20T11:33:22;28.80;99.90
28484;DHT22;15704;48.834;8.736;2023-08-20T11:35:51;29.00;99.90
28484;DHT22;15704;48.834;8.736;2023-08-20T11:38:20;29.40;99.90
28484;DHT22;15704;48.834;8.736;2023-08-20T11:40:48;29.30;99.90
28484;DHT22;15704;48.834;8.736;2023-08-20T11:43:15;29.60;99.90
28484;DHT22;15704;48.834;8.736;2023-08-20T11:45:49;29.50;99.90
28484;DHT22;15704;48.834;8.736;2023-08-20T11:48:16;29.40;99.90
28484;DHT22;15704;48.834;8.736;2023-08-20T11:50:43;29.30;99.90
28484;DHT22;15704;48.834;8.736;2023-08-20T11:53:11;29.40;99.90
28484;DHT22;15704;48.834;8.736;2023-08-20T11:55:39;29.30;99.90
28484;DHT22;15704;48.834;8.736;2023-08-20T11:58:11;29.20;99.90
28484;DHT22;15704;48.834;8.736;2023-08-20T12:00:39;29.40;99.90
28484;DHT22;15704;48.834;8.736;2023-08-20T12:03:08;29.40;99.90
28484;DHT22;15704;48.834;8.736;2023-08-20T12:05:35;29.60;99.90
28484;DHT22;15704;48.834;8.736;2023-08-20T12:08:03;29.80;99.90
28484;DHT22;15704;48.834;8.736;2023-08-20T12:10:32;29.90;99.90
28484;DHT22;15704;48.834;8.736;2023-08-20T12:12:59;29.50;99.90
28484;DHT22;15704;48.834;8.736;2023-08-20T12:15:26;29.50;99.90
28484;DHT22;15704;48.834;8.736;2023-08-20T12:18:02;29.50;99.90
28484;DHT22;15704;48.834;8.736;2023-08-20T12:20:36;29.70;99.90
28484;DHT22;15704;48.834;8.736;2023-08-20T12:23:05;29.70;99.90
28484;DHT22;15704;48.834;8.736;2023-08-20T12:25:33;29.70;99.90
28484;DHT22;15704;48.834;8.736;2023-08-20T12:28:04;30.00;99.90
28484;DHT22;15704;48.834;8.736;2023-08-20T12:30:32;29.50;99.90
28484;DHT22;15704;48.834;8.736;2023-08-20T12:33:04;29.70;99.90
28484;DHT22;15704;48.834;8.736;2023-08-20T12:35:31;29.80;99.90
28484;DHT22;15704;48.834;8.736;2023-08-20T12:37:58;29.70;99.90
28484;DHT22;15704;48.834;8.736;2023-08-20T12:40:25;29.80;99.90
28484;DHT22;15704;48.834;8.736;2023-08-20T12:42:51;29.60;99.90
28484;DHT22;15704;48.834;8.736;2023-08-20T12:45:18;29.50;99.90
28484;DHT22;15704;48.834;8.736;2023-08-20T12:47:45;29.70;99.90
28484;DHT22;15704;48.834;8.736;2023-08-20T12:50:12;29.80;99.90
28484;DHT22;15704;48.834;8.736;2023-08-20T12:52:41;30.00;99.90
28484;DHT22;15704;48.834;8.736;2023-08-20T12:55:09;30.30;99.90
28484;DHT22;15704;48.834;8.736;2023-08-20T12:57:36;30.40;99.90
28484;DHT22;15704;48.834;8.736;2023-08-20T13:00:03;30.30;99.90
28484;DHT22;15704;48.834;8.736;2023-08-20T13:02:37;29.90;99.90
28484;DHT22;15704;48.834;8.736;2023-08-20T13:05:05;29.80;99.90
28484;DHT22;15704;48.834;8.736;2023-08-20T13:07:32;29.70;99.90
28484;DHT22;15704;48.834;8.736;2023-08-20T13:09:59;29.80;99.90
28484;DHT22;15704;48.834;8.736;2023-08-20T13:12:27;29.90;99.90
28484;DHT22;15704;48.834;8.736;2023-08-20T13:14:54;29.90;99.90
28484;DHT22;15704;48.834;8.736;2023-08-20T13:17:21;29.90;99.90
28484;DHT22;15704;48.834;8.736;2023-08-20T13:19:48;30.00;99.90
28484;DHT22;15704;48.834;8.736;2023-08-20T13:22:15;30.00;99.90
28484;DHT22;15704;48.834;8.736;2023-08-20T13:24:42;30.00;99.90
28484;DHT22;15704;48.834;8.736;2023-08-20T13:27:09;30.00;99.90
28484;DHT22;15704;48.834;8.736;2023-08-20T13:29:36;30.10;99.90
28484;DHT22;15704;48.834;8.736;2023-08-20T13:32:03;30.00;99.90
28484;DHT22;15704;48.834;8.736;2023-08-20T13:34:30;30.10;99.90
28484;DHT22;15704;48.834;8.736;2023-08-20T13:36:57;30.00;99.90
28484;DHT22;15704;48.834;8.736;2023-08-20T13:39:25;30.00;99.90
28484;DHT22;15704;48.834;8.736;2023-08-20T13:41:52;30.10;99.90
28484;DHT22;15704;48.834;8.736;2023-08-20T13:44:19;30.30;99.90
28484;DHT22;15704;48.834;8.736;2023-08-20T13:46:46;30.20;99.90
28484;DHT22;15704;48.834;8.736;2023-08-20T13:49:13;30.40;99.90
28484;DHT22;15704;48.834;8.736;2023-08-20T13:51:40;30.10;99.90
28484;DHT22;15704;48.834;8.736;2023-08-20T13:54:06;30.00;99.90
28484;DHT22;15704;48.834;8.736;2023-08-20T13:56:34;29.80;99.90
28484;DHT22;15704;48.834;8.736;2023-08-20T13:59:01;29.90;99.90
28484;DHT22;15704;48.834;8.736;2023-08-20T14:01:28;29.90;99.90
28484;DHT22;15704;48.834;8.736;2023-08-20T14:03:55;30.10;99.90
28484;DHT22;15704;48.834;8.736;2023-08-20T14:06:21;30.00;99.90
28484;DHT22;15704;48.834;8.736;2023-08-20T14:08:48;30.10;99.90
28484;DHT22;15704;48.834;8.736;2023-08-20T14:11:15;30.00;99.90
28484;DHT22;15704;48.834;8.736;2023-08-20T14:13:42;30.20;99.90
28484;DHT22;15704;48.834;8.736;2023-08-20T14:16:09;30.20;99.90
28484;DHT22;15704;48.834;8.736;2023-08-20T14:18:36;30.40;99.90
28484;DHT22;15704;48.834;8.736;2023-08-20T14:21:03;30.10;99.90
28484;DHT22;15704;48.834;8.736;2023-08-20T14:23:29;30.00;99.90
28484;DHT22;15704;48.834;8.736;2023-08-20T14:25:56;30.20;99.90
28484;DHT22;15704;48.834;8.736;2023-08-20T14:28:23;30.30;99.90
28484;DHT22;15704;48.834;8.736;2023-08-20T14:30:50;30.40;99.90
28484;DHT22;15704;48.834;8.736;2023-08-20T14:33:21;30.40;99.90
28484;DHT22;15704;48.834;8.736;2023-08-20T14:35:47;30.40;99.90
28484;DHT22;15704;48.834;8.736;2023-08-20T14:38:14;30.50;99.90
28484;DHT22;15704;48.834;8.736;2023-08-20T14:40:41;30.30;99.90
28484;DHT22;15704;48.834;8.736;2023-08-20T14:43:08;30.50;99.90
28484;DHT22;15704;48.834;8.736;2023-08-20T14:45:35;30.50;99.90
28484;DHT22;15704;48.834;8.736;2023-08-20T14:48:02;30.60;99.90
28484;DHT22;15704;48.834;8.736;2023-08-20T14:50:30;30.60;99.90
28484;DHT22;15704;48.834;8.736;2023-08-20T14:52:58;30.60;99.90
28484;DHT22;15704;48.834;8.736;2023-08-20T14:55:25;30.40;99.90
28484;DHT22;15704;48.834;8.736;2023-08-20T14:57:53;30.40;99.90
28484;DHT22;15704;48.834;8.736;2023-08-20T15:00:19;30.40;99.90
28484;DHT22;15704;48.834;8.736;2023-08-20T15:02:49;30.30;99.90
28484;DHT22;15704;48.834;8.736;2023-08-20T15:05:16;30.50;99.90
28484;DHT22;15704;48.834;8.736;2023-08-20T15:07:43;30.50;99.90
28484;DHT22;15704;48.834;8.736;2023-08-20T15:10:10;30.50;99.90
28484;DHT22;15704;48.834;8.736;2023-08-20T15:12:37;30.50;99.90
28484;DHT22;15704;48.834;8.736;2023-08-20T15:15:04;30.50;99.90
28484;DHT22;15704;48.834;8.736;2023-08-20T15:17:31;30.30;99.90
28484;DHT22;15704;48.834;8.736;2023-08-20T15:19:59;30.30;99.90
28484;DHT22;15704;48.834;8.736;2023-08-20T15:22:26;30.10;99.90
28484;DHT22;15704;48.834;8.736;2023-08-20T15:24:53;30.20;99.90
28484;DHT22;15704;48.834;8.736;2023-08-20T15:27:23;30.10;99.90
28484;DHT22;15704;48.834;8.736;2023-08-20T15:29:50;30.20;99.90
28484;DHT22;15704;48.834;8.736;2023-08-20T15:32:17;30.00;99.90
28484;DHT22;15704;48.834;8.736;2023-08-20T15:34:44;30.10;99.90
28484;DHT22;15704;48.834;8.736;2023-08-20T15:37:11;30.20;99.90
28484;DHT22;15704;48.834;8.736;2023-08-20T15:39:39;30.30;99.90
28484;DHT22;15704;48.834;8.736;2023-08-20T15:42:06;30.20;99.90
28484;DHT22;15704;48.834;8.736;2023-08-20T15:44:33;30.20;99.90
28484;DHT22;15704;48.834;8.736;2023-08-20T15:46:59;30.30;99.90
28484;DHT22;15704;48.834;8.736;2023-08-20T15:49:26;30.00;99.90
28484;DHT22;15704;48.834;8.736;2023-08-20T15:51:56;30.10;99.90